Terminal Aerodrome Forecast
Issued by NWS

Home | Current Version | Previous Version | Text Only | Print | Product List | Glossary On
Versions: 1 2 3 4 5 6 7 8 9 10 11 12
000
FTUS43 KDMX 181126
TAFFOD
TAF
KFOD 181126Z 1812/1912 20010KT P6SM SKC
     FM181600 22013G21KT P6SM SCT250
     FM182100 25009KT P6SM SCT250
     FM190100 VRB03KT P6SM SKC=

USA.gov is the U.S. government's official web portal to all federal, state and local government web resources and services.